Terminal Aerodrome Forecast
Issued by NWS

Home | Current Version | Previous Version | Text Only | Print | Product List | Glossary On
Versions: 1 2 3 4 5 6 7 8 9 10 11 12 13 14 15 16 17 18 19 20 21 22 23 24
635
FTUS45 KGJT 051724
TAFMTJ
TAF
KMTJ 051724Z 0518/0618 08009KT P6SM FEW120 SCT250
     FM052000 19005KT P6SM SCT250
     FM052300 16011G20KT P6SM BKN250
     FM060500 13007KT P6SM SCT110 BKN200
     FM061300 14009KT P6SM BKN130=

USA.gov is the U.S. government's official web portal to all federal, state and local government web resources and services.